createdAt,value
2023-04-20T00:00:28.855Z,59.71
2023-04-20T00:02:59.010Z,60.23
2023-04-20T00:05:30.377Z,60.35
2023-04-20T00:08:01.351Z,60.44
2023-04-20T00:10:31.319Z,59.96
2023-04-20T00:13:03.820Z,59.76
2023-04-20T00:15:33.731Z,60.67
2023-04-20T00:18:03.811Z,60.60
2023-04-20T00:20:33.895Z,60.84
2023-04-20T00:23:04.000Z,60.87
2023-04-20T00:25:34.059Z,61.38
2023-04-20T00:28:06.725Z,61.71
2023-04-20T00:30:36.919Z,61.74
2023-04-20T00:33:07.973Z,61.70
2023-04-20T00:35:38.089Z,61.83
2023-04-20T00:38:08.119Z,61.42
2023-04-20T00:40:38.179Z,61.36
2023-04-20T00:43:17.936Z,61.04
2023-04-20T00:45:49.581Z,61.11
2023-04-20T00:48:19.517Z,60.90
2023-04-20T00:50:51.719Z,60.92
2023-04-20T00:53:22.586Z,60.87
2023-04-20T00:55:53.855Z,61.22
2023-04-20T00:58:26.804Z,60.63
2023-04-20T01:00:57.182Z,60.50
2023-04-20T01:03:27.500Z,60.99
2023-04-20T01:05:57.562Z,61.19
2023-04-20T01:08:29.306Z,61.35
2023-04-20T01:10:59.236Z,61.57
2023-04-20T01:13:31.742Z,61.23
2023-04-20T01:16:03.847Z,61.10
2023-04-20T01:18:44.648Z,61.60
2023-04-20T01:21:15.418Z,62.12
2023-04-20T01:23:48.942Z,61.45
2023-04-20T01:26:20.817Z,61.48
2023-04-20T01:28:53.501Z,61.17
2023-04-20T01:31:23.544Z,61.59
2023-04-20T01:33:54.187Z,61.89
2023-04-20T01:36:24.679Z,61.19
2023-04-20T01:38:57.319Z,60.98
2023-04-20T01:41:27.543Z,61.56
2023-04-20T01:43:59.821Z,61.33
2023-04-20T01:46:29.933Z,61.43
2023-04-20T01:48:59.997Z,61.49
2023-04-20T01:51:30.012Z,61.52
2023-04-20T01:54:03.148Z,61.80
2023-04-20T01:56:33.148Z,61.54
2023-04-20T01:59:03.172Z,61.59
2023-04-20T02:01:33.095Z,62.11
2023-04-20T02:04:03.770Z,62.85
2023-04-20T02:06:34.149Z,62.76
2023-04-20T02:09:06.865Z,62.54
2023-04-20T02:11:38.265Z,62.30
2023-04-20T02:14:11.022Z,62.84
2023-04-20T02:16:41.066Z,62.36
2023-04-20T02:19:11.255Z,62.74
2023-04-20T02:21:41.271Z,62.91
2023-04-20T02:24:13.850Z,62.92
2023-04-20T02:26:43.830Z,63.22
2023-04-20T02:29:13.771Z,62.91
2023-04-20T02:31:43.859Z,62.72
2023-04-20T02:34:13.830Z,62.68
2023-04-20T02:36:43.774Z,62.57
2023-04-20T02:39:18.962Z,63.44
2023-04-20T02:41:49.214Z,63.72
2023-04-20T02:44:19.989Z,63.74
2023-04-20T02:46:52.645Z,64.24
2023-04-20T02:49:23.315Z,64.06
2023-04-20T02:51:53.662Z,64.58
2023-04-20T02:54:26.298Z,64.28
2023-04-20T02:56:58.010Z,64.76
2023-04-20T02:59:28.457Z,64.81
2023-04-20T03:02:06.332Z,64.60
2023-04-20T03:04:37.000Z,64.90
2023-04-20T03:07:34.443Z,65.03
2023-04-20T03:10:08.276Z,65.07
2023-04-20T03:12:47.623Z,65.05
2023-04-20T03:15:31.482Z,65.36
2023-04-20T03:18:29.745Z,65.91
2023-04-20T03:20:59.901Z,65.95
2023-04-20T03:23:32.170Z,65.75
2023-04-20T03:26:06.535Z,66.20
2023-04-20T03:29:02.323Z,66.52
2023-04-20T03:31:32.981Z,66.33
2023-04-20T03:34:03.275Z,66.49
2023-04-20T03:36:33.682Z,66.44
2023-04-20T03:39:04.568Z,66.14
2023-04-20T03:41:37.283Z,66.54
2023-04-20T03:44:07.609Z,66.41
2023-04-20T03:46:37.818Z,66.67
2023-04-20T03:49:07.794Z,66.35
2023-04-20T03:51:37.836Z,66.06
2023-04-20T03:54:09.161Z,66.10
2023-04-20T03:56:41.913Z,66.27
2023-04-20T03:59:11.986Z,66.22
2023-04-20T04:01:44.254Z,65.99
2023-04-20T04:04:14.681Z,65.87
2023-04-20T04:06:44.823Z,66.45
2023-04-20T04:09:14.852Z,66.89
2023-04-20T04:11:47.386Z,66.80
2023-04-20T04:14:18.069Z,67.45
2023-04-20T04:16:48.159Z,67.54
2023-04-20T04:19:18.860Z,67.60
2023-04-20T04:21:49.144Z,67.59
2023-04-20T04:24:19.697Z,67.53
2023-04-20T04:27:05.390Z,67.85
2023-04-20T04:29:41.992Z,67.84
2023-04-20T04:32:16.632Z,67.29
2023-04-20T04:34:48.383Z,67.42
2023-04-20T04:37:18.813Z,67.29
2023-04-20T04:39:53.224Z,67.42
2023-04-20T04:42:30.313Z,67.42
2023-04-20T04:45:03.807Z,67.11
2023-04-20T04:47:41.446Z,66.71
2023-04-20T04:50:13.111Z,66.99
2023-04-20T04:52:43.179Z,67.08
2023-04-20T04:55:14.473Z,67.22
2023-04-20T04:57:48.763Z,66.46
2023-04-20T05:00:20.065Z,66.35
2023-04-20T05:02:50.189Z,66.05
2023-04-20T05:05:20.507Z,65.88
2023-04-20T05:07:50.547Z,65.70
2023-04-20T05:10:20.810Z,66.36
2023-04-20T05:12:53.425Z,65.80
2023-04-20T05:15:23.477Z,65.92
2023-04-20T05:17:53.500Z,66.60
2023-04-20T05:20:23.562Z,65.85
2023-04-20T05:22:53.569Z,65.72
2023-04-20T05:25:23.724Z,66.06
2023-04-20T05:27:56.382Z,65.99
2023-04-20T05:30:26.536Z,65.23
2023-04-20T05:32:56.538Z,65.57
2023-04-20T05:35:26.500Z,65.73
2023-04-20T05:37:56.571Z,65.41
2023-04-20T05:40:26.746Z,65.71
2023-04-20T05:42:59.304Z,65.45
2023-04-20T05:45:29.614Z,65.34
2023-04-20T05:48:00.611Z,64.91
2023-04-20T05:50:30.784Z,64.75
2023-04-20T05:53:00.699Z,64.78
2023-04-20T05:55:30.625Z,64.91
2023-04-20T05:58:03.509Z,65.53
2023-04-20T06:00:33.558Z,64.89
2023-04-20T06:03:03.699Z,64.15
2023-04-20T06:05:34.775Z,64.12
2023-04-20T06:08:05.281Z,64.42
2023-04-20T06:10:35.385Z,63.88
2023-04-20T06:13:11.115Z,63.35
2023-04-20T06:15:41.493Z,63.43
2023-04-20T06:18:11.731Z,64.05
2023-04-20T06:20:42.050Z,63.86
2023-04-20T06:23:12.026Z,64.18
2023-04-20T06:25:42.306Z,64.03
2023-04-20T06:28:14.941Z,64.33
2023-04-20T06:30:44.933Z,65.91
2023-04-20T06:33:17.493Z,64.71
2023-04-20T06:35:47.744Z,64.33
2023-04-20T06:38:17.940Z,63.94
2023-04-20T06:40:48.092Z,64.31
2023-04-20T06:43:21.490Z,64.00
2023-04-20T06:45:51.557Z,64.09
2023-04-20T06:48:31.438Z,63.70
2023-04-20T06:51:02.534Z,63.17
2023-04-20T06:53:32.673Z,62.92
2023-04-20T06:56:02.701Z,62.91
2023-04-20T06:58:35.310Z,62.96
2023-04-20T07:01:05.604Z,63.11
2023-04-20T07:03:35.769Z,62.54
2023-04-20T07:06:07.554Z,62.29
2023-04-20T07:08:37.573Z,62.30
2023-04-20T07:11:07.649Z,62.36
2023-04-20T07:13:40.173Z,62.69
2023-04-20T07:16:10.844Z,62.46
2023-04-20T07:18:40.813Z,62.69
2023-04-20T07:21:10.795Z,62.35
2023-04-20T07:23:41.473Z,61.95
2023-04-20T07:26:12.825Z,61.38
2023-04-20T07:28:45.376Z,61.22
2023-04-20T07:31:15.343Z,61.10
2023-04-20T07:33:45.569Z,60.98
2023-04-20T07:36:15.600Z,60.62
2023-04-20T07:38:45.649Z,60.37
2023-04-20T07:41:15.670Z,60.37
2023-04-20T07:43:48.232Z,60.39
2023-04-20T07:46:23.684Z,59.84
2023-04-20T07:48:54.103Z,59.46
2023-04-20T07:51:24.045Z,59.53
2023-04-20T07:53:54.187Z,58.63
2023-04-20T07:56:24.155Z,58.81
2023-04-20T07:58:56.798Z,58.82
2023-04-20T08:01:27.854Z,58.83
2023-04-20T08:03:58.014Z,58.97
2023-04-20T08:06:28.264Z,58.56
2023-04-20T08:08:58.234Z,58.55
2023-04-20T08:11:28.455Z,58.47
2023-04-20T08:14:01.189Z,58.38
2023-04-20T08:16:31.265Z,58.18
2023-04-20T08:19:01.943Z,58.01
2023-04-20T08:21:31.953Z,57.51
2023-04-20T08:24:01.902Z,57.65
2023-04-20T08:26:32.064Z,57.63
2023-04-20T08:29:05.862Z,57.45
2023-04-20T08:31:35.952Z,57.44
2023-04-20T08:34:06.144Z,57.33
2023-04-20T08:36:36.344Z,57.10
2023-04-20T08:39:11.332Z,57.08
2023-04-20T08:41:41.319Z,56.92
2023-04-20T08:44:14.351Z,57.07
2023-04-20T08:46:50.176Z,56.48
2023-04-20T08:49:21.976Z,56.88
2023-04-20T08:51:52.956Z,56.50
2023-04-20T08:54:24.772Z,56.66
2023-04-20T08:56:54.825Z,56.47
2023-04-20T08:59:27.920Z,56.10
2023-04-20T09:01:58.003Z,56.40
2023-04-20T09:04:29.786Z,55.69
2023-04-20T09:07:00.012Z,56.06
2023-04-20T09:09:30.036Z,54.88
2023-04-20T09:12:05.179Z,55.09
2023-04-20T09:14:46.917Z,55.09
2023-04-20T09:17:18.184Z,54.80
2023-04-20T09:19:55.213Z,54.77
2023-04-20T09:22:34.183Z,54.17
2023-04-20T09:25:04.877Z,53.65
2023-04-20T09:27:35.269Z,53.45
2023-04-20T09:30:09.958Z,53.27
2023-04-20T09:32:40.338Z,52.99
2023-04-20T09:35:11.965Z,52.09
2023-04-20T09:37:50.513Z,52.39
2023-04-20T09:40:22.520Z,51.71
2023-04-20T09:42:54.124Z,51.68
2023-04-20T09:45:28.770Z,50.86
2023-04-20T09:48:00.468Z,52.04
2023-04-20T09:50:41.835Z,52.47
2023-04-20T09:53:19.423Z,52.15
2023-04-20T09:55:51.404Z,52.67
2023-04-20T09:58:22.546Z,51.45
2023-04-20T10:00:55.513Z,51.17
2023-04-20T10:03:26.362Z,51.29
2023-04-20T10:05:58.013Z,51.12
2023-04-20T10:08:28.185Z,51.61
2023-04-20T10:10:58.238Z,51.23
2023-04-20T10:13:37.672Z,50.57
2023-04-20T10:16:21.401Z,49.55
2023-04-20T10:19:09.025Z,50.61
2023-04-20T10:21:49.170Z,50.92
2023-04-20T10:24:30.914Z,51.31
2023-04-20T10:27:03.009Z,50.72
2023-04-20T10:29:36.519Z,49.59
2023-04-20T10:32:09.339Z,49.73
2023-04-20T10:34:39.869Z,48.70
2023-04-20T10:37:11.498Z,48.97
2023-04-20T10:39:49.438Z,50.72
2023-04-20T10:42:19.554Z,50.14
2023-04-20T10:44:52.882Z,50.70
2023-04-20T10:47:34.448Z,51.25
2023-04-20T10:50:12.259Z,51.65
2023-04-20T10:52:44.461Z,53.21
2023-04-20T10:55:25.764Z,52.75
2023-04-20T10:57:56.198Z,53.00
2023-04-20T11:00:31.029Z,53.39
2023-04-20T11:03:03.727Z,54.44
2023-04-20T11:05:34.020Z,55.71
2023-04-20T11:08:04.285Z,55.93
2023-04-20T11:10:42.358Z,57.73
2023-04-20T11:13:23.575Z,55.92
2023-04-20T11:15:53.667Z,54.71
2023-04-20T11:18:26.292Z,54.66
2023-04-20T11:20:58.106Z,55.07
2023-04-20T11:23:28.541Z,55.40
2023-04-20T11:25:59.887Z,56.16
2023-04-20T11:28:34.760Z,56.19
2023-04-20T11:31:05.073Z,56.33
2023-04-20T11:33:37.855Z,56.26
2023-04-20T11:36:08.302Z,56.16
2023-04-20T11:38:38.541Z,54.45
2023-04-20T11:41:08.751Z,54.47
2023-04-20T11:43:39.002Z,54.41
2023-04-20T11:46:17.158Z,55.34
2023-04-20T11:48:50.377Z,54.81
2023-04-20T11:51:20.456Z,54.63
2023-04-20T11:53:50.803Z,55.29
2023-04-20T11:56:21.188Z,55.39
2023-04-20T11:58:51.260Z,55.56
2023-04-20T12:01:21.437Z,55.62
2023-04-20T12:03:55.950Z,55.63
2023-04-20T12:06:27.300Z,55.47
2023-04-20T12:08:57.327Z,55.97
2023-04-20T12:11:27.459Z,54.76
2023-04-20T12:13:58.241Z,54.49
2023-04-20T12:16:28.398Z,54.98
2023-04-20T12:19:01.044Z,53.43
2023-04-20T12:21:32.780Z,53.18
2023-04-20T12:24:02.820Z,52.52
2023-04-20T12:26:38.392Z,52.01
2023-04-20T12:29:09.295Z,51.58
2023-04-20T12:31:39.271Z,51.25
2023-04-20T12:34:15.032Z,50.30
2023-04-20T12:36:51.065Z,51.64
2023-04-20T12:39:24.918Z,51.11
2023-04-20T12:41:56.036Z,51.28
2023-04-20T12:44:26.648Z,51.21
2023-04-20T12:47:14.186Z,52.79
2023-04-20T12:49:46.730Z,52.92
2023-04-20T12:52:16.800Z,52.59
2023-04-20T12:54:46.772Z,52.65
2023-04-20T12:57:17.199Z,52.20
2023-04-20T12:59:48.729Z,51.12
2023-04-20T13:02:18.931Z,50.21
2023-04-20T13:04:52.168Z,51.15
2023-04-20T13:07:22.216Z,51.36
2023-04-20T13:09:52.164Z,51.87
2023-04-20T13:12:22.125Z,52.66
2023-04-20T13:14:52.178Z,52.63
2023-04-20T13:17:22.305Z,52.50
2023-04-20T13:19:54.958Z,54.00
2023-04-20T13:22:24.951Z,54.31
2023-04-20T13:24:55.045Z,54.23
2023-04-20T13:27:25.092Z,54.09
2023-04-20T13:29:55.438Z,55.01
2023-04-20T13:32:25.526Z,54.56
2023-04-20T13:34:58.166Z,55.92
2023-04-20T13:37:28.778Z,55.50
2023-04-20T13:39:58.718Z,55.44
2023-04-20T13:42:29.062Z,57.05
2023-04-20T13:44:59.349Z,56.84
2023-04-20T13:47:29.630Z,57.88
2023-04-20T13:50:03.693Z,58.46
2023-04-20T13:52:34.236Z,58.97
2023-04-20T13:55:04.305Z,59.56
2023-04-20T13:57:34.359Z,59.78
2023-04-20T14:00:05.574Z,61.21
2023-04-20T14:02:36.001Z,61.29
2023-04-20T14:05:10.442Z,61.18
2023-04-20T14:07:40.557Z,61.86
2023-04-20T14:10:12.151Z,61.86
2023-04-20T14:12:42.161Z,62.42
2023-04-20T14:15:14.198Z,62.00
2023-04-20T14:17:44.192Z,61.55
2023-04-20T14:20:17.195Z,61.13
2023-04-20T14:22:47.190Z,60.69
2023-04-20T14:25:17.215Z,61.39
2023-04-20T14:27:47.396Z,60.95
2023-04-20T14:30:18.059Z,60.75
2023-04-20T14:32:56.748Z,60.82
2023-04-20T14:35:31.355Z,60.44
2023-04-20T14:38:01.310Z,60.10
2023-04-20T14:40:31.691Z,60.62
2023-04-20T14:43:01.793Z,60.37
2023-04-20T14:45:31.996Z,59.78
2023-04-20T14:48:02.060Z,59.73
2023-04-20T14:50:34.950Z,59.55
2023-04-20T14:53:04.934Z,59.35
2023-04-20T14:55:34.910Z,59.46
2023-04-20T14:58:04.934Z,59.35
2023-04-20T15:00:35.148Z,59.72
2023-04-20T15:03:05.438Z,59.54
2023-04-20T15:05:38.561Z,59.57
2023-04-20T15:08:08.768Z,59.75
2023-04-20T15:10:38.731Z,59.19
2023-04-20T15:13:09.698Z,59.19
2023-04-20T15:15:48.467Z,58.79
2023-04-20T15:18:20.030Z,59.02
2023-04-20T15:20:53.953Z,58.92
2023-04-20T15:23:24.357Z,59.75
2023-04-20T15:25:55.573Z,59.36
2023-04-20T15:28:25.517Z,58.94
2023-04-20T15:30:55.522Z,58.86
2023-04-20T15:33:25.527Z,59.30
2023-04-20T15:35:58.078Z,59.04
2023-04-20T15:38:28.019Z,58.84
2023-04-20T15:40:58.964Z,59.92
2023-04-20T15:43:28.943Z,59.40
2023-04-20T15:45:58.981Z,59.31
2023-04-20T15:48:29.666Z,60.37
2023-04-20T15:51:02.211Z,60.48
2023-04-20T15:53:32.269Z,61.02
2023-04-20T15:56:02.212Z,61.60
2023-04-20T15:58:32.207Z,61.98
2023-04-20T16:01:02.370Z,62.89
2023-04-20T16:03:32.513Z,62.89
2023-04-20T16:06:10.012Z,63.20
2023-04-20T16:08:43.304Z,63.47
2023-04-20T16:11:13.492Z,63.83
2023-04-20T16:13:43.727Z,63.68
2023-04-20T16:16:13.735Z,64.20
2023-04-20T16:18:43.775Z,64.26
2023-04-20T16:21:16.509Z,64.27
2023-04-20T16:23:46.805Z,64.58
2023-04-20T16:26:16.765Z,64.88
2023-04-20T16:28:46.738Z,65.20
2023-04-20T16:31:17.790Z,65.40
2023-04-20T16:33:48.337Z,65.50
2023-04-20T16:36:20.954Z,65.52
2023-04-20T16:38:50.966Z,65.42
2023-04-20T16:41:20.989Z,65.76
2023-04-20T16:43:50.953Z,65.81
2023-04-20T16:46:22.453Z,65.73
2023-04-20T16:48:54.691Z,65.36
2023-04-20T16:51:28.015Z,65.10
2023-04-20T16:53:58.033Z,65.37
2023-04-20T16:56:29.897Z,65.17
2023-04-20T16:59:01.448Z,66.09
2023-04-20T17:01:32.196Z,66.26
2023-04-20T17:04:02.653Z,66.92
2023-04-20T17:06:35.296Z,66.46
2023-04-20T17:09:07.200Z,66.53
2023-04-20T17:11:39.728Z,67.04
2023-04-20T17:14:10.007Z,67.04
2023-04-20T17:16:40.219Z,67.24
2023-04-20T17:19:10.738Z,67.10
2023-04-20T17:21:45.357Z,67.57
2023-04-20T17:24:15.440Z,68.05
2023-04-20T17:26:46.445Z,68.11
2023-04-20T17:29:18.414Z,68.12
2023-04-20T17:31:51.183Z,68.07
2023-04-20T17:34:21.853Z,67.68
2023-04-20T17:36:54.667Z,68.42
2023-04-20T17:39:24.762Z,68.78
2023-04-20T17:41:54.829Z,67.98
2023-04-20T17:44:24.861Z,68.32
2023-04-20T17:46:55.054Z,66.87
2023-04-20T17:49:25.074Z,66.54
2023-04-20T17:51:57.736Z,66.38
2023-04-20T17:54:28.627Z,66.11
2023-04-20T17:56:59.116Z,66.17
2023-04-20T17:59:30.816Z,65.93
2023-04-20T18:02:01.360Z,66.86
2023-04-20T18:04:31.693Z,66.33
2023-04-20T18:07:04.497Z,66.36
2023-04-20T18:09:34.600Z,66.30
2023-04-20T18:12:04.650Z,66.18
2023-04-20T18:14:34.595Z,66.21
2023-04-20T18:17:18.056Z,66.30
2023-04-20T18:20:06.027Z,66.24
2023-04-20T18:22:39.684Z,66.51
2023-04-20T18:25:10.186Z,66.98
2023-04-20T18:27:40.709Z,68.02
2023-04-20T18:30:12.864Z,67.88
2023-04-20T18:32:47.007Z,67.51
2023-04-20T18:35:17.401Z,67.26
2023-04-20T18:37:50.105Z,67.33
2023-04-20T18:40:20.068Z,66.86
2023-04-20T18:42:50.143Z,67.03
2023-04-20T18:45:21.905Z,67.08
2023-04-20T18:47:52.175Z,67.19
2023-04-20T18:50:22.427Z,66.82
2023-04-20T18:52:55.056Z,66.83
2023-04-20T18:55:25.152Z,66.95
2023-04-20T18:57:55.214Z,67.48
2023-04-20T19:00:25.807Z,67.48
2023-04-20T19:02:56.003Z,67.09
2023-04-20T19:05:26.701Z,67.14
2023-04-20T19:07:59.606Z,67.74
2023-04-20T19:10:29.653Z,67.59
2023-04-20T19:12:59.705Z,67.70
2023-04-20T19:15:29.701Z,67.85
2023-04-20T19:17:59.780Z,67.68
2023-04-20T19:20:29.980Z,67.72
2023-04-20T19:23:02.553Z,67.86
2023-04-20T19:25:32.890Z,67.71
2023-04-20T19:28:03.034Z,68.34
2023-04-20T19:30:33.199Z,68.46
2023-04-20T19:33:05.105Z,68.67
2023-04-20T19:35:35.363Z,68.56
2023-04-20T19:38:08.078Z,68.97
2023-04-20T19:40:38.214Z,69.15
2023-04-20T19:43:08.206Z,69.21
2023-04-20T19:45:38.265Z,69.43
2023-04-20T19:48:08.797Z,69.29
2023-04-20T19:50:38.927Z,69.52
2023-04-20T19:53:11.727Z,69.28
2023-04-20T19:55:41.794Z,69.61
2023-04-20T19:58:13.271Z,69.92
2023-04-20T20:00:43.354Z,70.02
2023-04-20T20:03:15.874Z,70.10
2023-04-20T20:05:46.402Z,70.61
2023-04-20T20:08:19.273Z,70.75
2023-04-20T20:10:49.316Z,70.99
2023-04-20T20:13:19.413Z,70.73
2023-04-20T20:15:49.546Z,70.85
2023-04-20T20:18:20.582Z,71.12
2023-04-20T20:20:51.480Z,71.39
2023-04-20T20:23:24.167Z,71.15
2023-04-20T20:25:54.236Z,71.38
2023-04-20T20:28:24.288Z,71.31
2023-04-20T20:30:54.301Z,71.15
2023-04-20T20:33:24.424Z,71.17
2023-04-20T20:35:55.413Z,71.24
2023-04-20T20:38:31.165Z,71.49
2023-04-20T20:41:01.953Z,71.81
2023-04-20T20:43:32.011Z,71.76
2023-04-20T20:46:01.957Z,71.78
2023-04-20T20:48:31.962Z,72.02
2023-04-20T20:51:01.958Z,72.00
2023-04-20T20:53:34.630Z,72.00
2023-04-20T20:56:04.724Z,71.69
2023-04-20T20:58:34.771Z,71.90
2023-04-20T21:01:04.803Z,72.08
2023-04-20T21:03:35.107Z,72.12
2023-04-20T21:06:05.573Z,71.94
2023-04-20T21:08:38.267Z,72.08
2023-04-20T21:11:08.845Z,72.68
2023-04-20T21:13:38.896Z,72.55
2023-04-20T21:16:09.340Z,72.46
2023-04-20T21:18:39.422Z,72.77
2023-04-20T21:21:09.458Z,72.79
2023-04-20T21:23:42.149Z,73.32
2023-04-20T21:26:12.244Z,73.63
2023-04-20T21:28:42.237Z,73.26
2023-04-20T21:31:12.465Z,73.43
2023-04-20T21:33:42.479Z,73.94
2023-04-20T21:36:12.569Z,73.76
2023-04-20T21:38:45.154Z,74.00
2023-04-20T21:41:15.291Z,74.00
2023-04-20T21:43:45.730Z,74.38
2023-04-20T21:46:17.462Z,74.62
2023-04-20T21:48:47.547Z,74.43
2023-04-20T21:51:18.330Z,74.59
2023-04-20T21:53:50.927Z,74.55
2023-04-20T21:56:21.006Z,74.80
2023-04-20T21:58:50.995Z,74.63
2023-04-20T22:01:21.028Z,74.65
2023-04-20T22:03:52.025Z,74.75
2023-04-20T22:06:22.250Z,74.77
2023-04-20T22:08:54.805Z,74.86
2023-04-20T22:11:24.780Z,74.59
2023-04-20T22:13:57.332Z,74.98
2023-04-20T22:16:28.717Z,75.32
2023-04-20T22:18:58.918Z,75.08
2023-04-20T22:21:28.923Z,75.44
2023-04-20T22:24:01.616Z,75.64
2023-04-20T22:26:31.613Z,75.63
2023-04-20T22:29:01.645Z,75.98
2023-04-20T22:31:32.493Z,75.85
2023-04-20T22:34:02.562Z,76.39
2023-04-20T22:36:32.740Z,76.39
2023-04-20T22:39:05.343Z,76.46
2023-04-20T22:41:35.630Z,76.36
2023-04-20T22:44:05.939Z,76.61
2023-04-20T22:46:35.971Z,76.18
2023-04-20T22:49:06.224Z,76.07
2023-04-20T22:51:57.144Z,76.22
2023-04-20T22:54:29.800Z,76.46
2023-04-20T22:56:59.875Z,76.52
2023-04-20T22:59:29.896Z,76.39
2023-04-20T23:02:00.046Z,76.17
2023-04-20T23:04:30.193Z,76.30
2023-04-20T23:07:00.270Z,76.86
2023-04-20T23:09:32.818Z,76.74
2023-04-20T23:12:03.613Z,76.46
2023-04-20T23:14:33.833Z,77.00
2023-04-20T23:17:03.804Z,76.73
2023-04-20T23:19:33.877Z,77.02
2023-04-20T23:22:04.062Z,77.04
2023-04-20T23:24:36.649Z,77.69
2023-04-20T23:27:06.774Z,77.29
2023-04-20T23:29:36.789Z,77.40
2023-04-20T23:32:07.211Z,77.12
2023-04-20T23:34:37.270Z,77.04
2023-04-20T23:37:07.256Z,77.26
2023-04-20T23:39:42.763Z,76.70
2023-04-20T23:42:12.772Z,77.02
2023-04-20T23:44:42.764Z,77.35
2023-04-20T23:47:12.738Z,77.61
2023-04-20T23:49:42.688Z,77.56
2023-04-20T23:52:12.688Z,77.48
2023-04-20T23:54:45.264Z,77.25
2023-04-20T23:57:15.245Z,77.33
2023-04-20T23:59:45.559Z,77.26
